sensor_id;sensor_type;location;lat;lon;timestamp;temperature;humidity
18597;DHT22;9428;50.950;6.912;2023-11-21T00:01:09;10.20;99.90
18597;DHT22;9428;50.950;6.912;2023-11-21T00:03:56;10.10;99.90
18597;DHT22;9428;50.950;6.912;2023-11-21T00:06:43;10.10;99.90
18597;DHT22;9428;50.950;6.912;2023-11-21T00:09:34;10.10;99.90
18597;DHT22;9428;50.950;6.912;2023-11-21T00:12:22;10.10;99.90
18597;DHT22;9428;50.950;6.912;2023-11-21T00:15:10;10.10;99.90
18597;DHT22;9428;50.950;6.912;2023-11-21T00:17:58;10.00;99.90
18597;DHT22;9428;50.950;6.912;2023-11-21T00:20:45;10.00;99.90
18597;DHT22;9428;50.950;6.912;2023-11-21T00:23:32;10.10;99.90
18597;DHT22;9428;50.950;6.912;2023-11-21T00:26:21;10.10;99.90
18597;DHT22;9428;50.950;6.912;2023-11-21T00:29:08;9.80;99.90
18597;DHT22;9428;50.950;6.912;2023-11-21T00:31:56;9.80;99.90
18597;DHT22;9428;50.950;6.912;2023-11-21T00:34:44;9.60;99.90
18597;DHT22;9428;50.950;6.912;2023-11-21T00:37:31;9.60;99.90
18597;DHT22;9428;50.950;6.912;2023-11-21T00:40:18;9.70;99.90
18597;DHT22;9428;50.950;6.912;2023-11-21T00:43:08;9.60;99.90
18597;DHT22;9428;50.950;6.912;2023-11-21T00:45:55;9.70;99.90
18597;DHT22;9428;50.950;6.912;2023-11-21T00:48:42;9.80;99.90
18597;DHT22;9428;50.950;6.912;2023-11-21T00:51:30;9.20;99.90
18597;DHT22;9428;50.950;6.912;2023-11-21T00:54:19;10.00;99.90
18597;DHT22;9428;50.950;6.912;2023-11-21T00:57:06;9.90;99.90
18597;DHT22;9428;50.950;6.912;2023-11-21T00:59:55;10.00;99.90
18597;DHT22;9428;50.950;6.912;2023-11-21T01:02:43;9.80;99.90
18597;DHT22;9428;50.950;6.912;2023-11-21T01:05:31;9.90;99.90
18597;DHT22;9428;50.950;6.912;2023-11-21T01:08:18;9.90;99.90
18597;DHT22;9428;50.950;6.912;2023-11-21T01:11:06;10.00;99.90
18597;DHT22;9428;50.950;6.912;2023-11-21T01:13:55;10.00;99.90
18597;DHT22;9428;50.950;6.912;2023-11-21T01:16:45;9.90;99.90
18597;DHT22;9428;50.950;6.912;2023-11-21T01:19:33;10.40;99.90
18597;DHT22;9428;50.950;6.912;2023-11-21T01:22:20;9.10;99.90
18597;DHT22;9428;50.950;6.912;2023-11-21T01:25:11;9.90;99.90
18597;DHT22;9428;50.950;6.912;2023-11-21T01:28:00;10.00;99.90
18597;DHT22;9428;50.950;6.912;2023-11-21T01:30:50;9.90;99.90
18597;DHT22;9428;50.950;6.912;2023-11-21T01:33:39;9.60;99.90
18597;DHT22;9428;50.950;6.912;2023-11-21T01:36:32;9.80;99.90
18597;DHT22;9428;50.950;6.912;2023-11-21T01:39:19;9.90;99.90
18597;DHT22;9428;50.950;6.912;2023-11-21T01:42:09;9.80;99.90
18597;DHT22;9428;50.950;6.912;2023-11-21T01:44:58;9.90;99.90
18597;DHT22;9428;50.950;6.912;2023-11-21T01:47:46;9.80;99.90
18597;DHT22;9428;50.950;6.912;2023-11-21T01:50:36;9.70;99.90
18597;DHT22;9428;50.950;6.912;2023-11-21T01:53:24;9.90;99.90
18597;DHT22;9428;50.950;6.912;2023-11-21T01:56:18;9.90;99.90
18597;DHT22;9428;50.950;6.912;2023-11-21T01:59:06;10.10;99.90
18597;DHT22;9428;50.950;6.912;2023-11-21T02:01:54;9.80;99.90
18597;DHT22;9428;50.950;6.912;2023-11-21T02:04:42;9.80;99.90
18597;DHT22;9428;50.950;6.912;2023-11-21T02:07:31;9.80;99.90
18597;DHT22;9428;50.950;6.912;2023-11-21T02:10:18;9.90;99.90
18597;DHT22;9428;50.950;6.912;2023-11-21T02:13:08;10.50;99.90
18597;DHT22;9428;50.950;6.912;2023-11-21T02:15:56;9.80;99.90
18597;DHT22;9428;50.950;6.912;2023-11-21T02:18:44;9.90;99.90
18597;DHT22;9428;50.950;6.912;2023-11-21T02:21:33;9.90;99.90
18597;DHT22;9428;50.950;6.912;2023-11-21T02:24:23;9.90;99.90
18597;DHT22;9428;50.950;6.912;2023-11-21T02:27:14;9.80;99.90
18597;DHT22;9428;50.950;6.912;2023-11-21T02:30:10;9.90;99.90
18597;DHT22;9428;50.950;6.912;2023-11-21T02:32:59;10.00;99.90
18597;DHT22;9428;50.950;6.912;2023-11-21T02:35:46;9.90;99.90
18597;DHT22;9428;50.950;6.912;2023-11-21T02:38:34;9.80;99.90
18597;DHT22;9428;50.950;6.912;2023-11-21T02:41:23;9.90;99.90
18597;DHT22;9428;50.950;6.912;2023-11-21T02:44:10;9.90;99.90
18597;DHT22;9428;50.950;6.912;2023-11-21T02:46:57;9.90;99.90
18597;DHT22;9428;50.950;6.912;2023-11-21T02:49:46;9.90;99.90
18597;DHT22;9428;50.950;6.912;2023-11-21T02:52:35;9.80;99.90
18597;DHT22;9428;50.950;6.912;2023-11-21T02:55:23;9.80;99.90
18597;DHT22;9428;50.950;6.912;2023-11-21T02:58:12;9.80;99.90
18597;DHT22;9428;50.950;6.912;2023-11-21T03:01:00;9.80;99.90
18597;DHT22;9428;50.950;6.912;2023-11-21T03:03:48;9.80;99.90
18597;DHT22;9428;50.950;6.912;2023-11-21T03:06:37;9.80;99.90
18597;DHT22;9428;50.950;6.912;2023-11-21T03:09:26;9.90;99.90
18597;DHT22;9428;50.950;6.912;2023-11-21T03:12:13;9.80;99.90
18597;DHT22;9428;50.950;6.912;2023-11-21T03:15:06;9.80;99.90
18597;DHT22;9428;50.950;6.912;2023-11-21T03:17:54;9.70;99.90
18597;DHT22;9428;50.950;6.912;2023-11-21T03:20:43;9.60;99.90
18597;DHT22;9428;50.950;6.912;2023-11-21T03:23:32;9.60;99.90
18597;DHT22;9428;50.950;6.912;2023-11-21T03:26:20;9.20;99.90
18597;DHT22;9428;50.950;6.912;2023-11-21T03:29:07;10.10;99.90
18597;DHT22;9428;50.950;6.912;2023-11-21T03:31:56;9.70;99.90
18597;DHT22;9428;50.950;6.912;2023-11-21T03:34:57;9.70;99.90
18597;DHT22;9428;50.950;6.912;2023-11-21T03:37:44;9.50;99.90
18597;DHT22;9428;50.950;6.912;2023-11-21T03:40:32;9.50;99.90
18597;DHT22;9428;50.950;6.912;2023-11-21T03:43:20;9.60;99.90
18597;DHT22;9428;50.950;6.912;2023-11-21T03:46:07;9.70;99.90
18597;DHT22;9428;50.950;6.912;2023-11-21T03:48:57;9.70;99.90
18597;DHT22;9428;50.950;6.912;2023-11-21T03:51:47;9.70;99.90
18597;DHT22;9428;50.950;6.912;2023-11-21T03:54:35;9.70;99.90
18597;DHT22;9428;50.950;6.912;2023-11-21T03:57:23;9.80;99.90
18597;DHT22;9428;50.950;6.912;2023-11-21T04:00:11;9.80;99.90
18597;DHT22;9428;50.950;6.912;2023-11-21T04:02:58;9.80;99.90
18597;DHT22;9428;50.950;6.912;2023-11-21T04:05:47;9.80;99.90
18597;DHT22;9428;50.950;6.912;2023-11-21T04:08:34;9.80;99.90
18597;DHT22;9428;50.950;6.912;2023-11-21T04:11:22;9.60;99.90
18597;DHT22;9428;50.950;6.912;2023-11-21T04:14:09;9.70;99.90
18597;DHT22;9428;50.950;6.912;2023-11-21T04:16:57;9.70;99.90
18597;DHT22;9428;50.950;6.912;2023-11-21T04:19:44;9.70;99.90
18597;DHT22;9428;50.950;6.912;2023-11-21T04:22:33;9.80;99.90
18597;DHT22;9428;50.950;6.912;2023-11-21T04:25:20;9.80;99.90
18597;DHT22;9428;50.950;6.912;2023-11-21T04:28:09;9.70;99.90
18597;DHT22;9428;50.950;6.912;2023-11-21T04:30:58;10.30;99.90
18597;DHT22;9428;50.950;6.912;2023-11-21T04:33:45;9.70;99.90
18597;DHT22;9428;50.950;6.912;2023-11-21T04:36:32;9.60;99.90
18597;DHT22;9428;50.950;6.912;2023-11-21T04:39:22;10.10;99.90
18597;DHT22;9428;50.950;6.912;2023-11-21T04:42:09;9.80;99.90
18597;DHT22;9428;50.950;6.912;2023-11-21T04:44:58;9.80;99.90
18597;DHT22;9428;50.950;6.912;2023-11-21T04:47:45;10.00;99.90
18597;DHT22;9428;50.950;6.912;2023-11-21T04:50:32;9.80;99.90
18597;DHT22;9428;50.950;6.912;2023-11-21T04:53:19;9.80;99.90
18597;DHT22;9428;50.950;6.912;2023-11-21T04:56:08;9.80;99.90
18597;DHT22;9428;50.950;6.912;2023-11-21T04:58:55;9.90;99.90
18597;DHT22;9428;50.950;6.912;2023-11-21T05:01:43;9.80;99.90
18597;DHT22;9428;50.950;6.912;2023-11-21T05:04:33;9.80;99.90
18597;DHT22;9428;50.950;6.912;2023-11-21T05:07:20;9.80;99.90
18597;DHT22;9428;50.950;6.912;2023-11-21T05:10:08;9.80;99.90
18597;DHT22;9428;50.950;6.912;2023-11-21T05:12:59;9.80;99.90
18597;DHT22;9428;50.950;6.912;2023-11-21T05:15:46;9.80;99.90
18597;DHT22;9428;50.950;6.912;2023-11-21T05:18:33;9.90;99.90
18597;DHT22;9428;50.950;6.912;2023-11-21T05:21:21;9.80;99.90
18597;DHT22;9428;50.950;6.912;2023-11-21T05:24:09;9.70;99.90
18597;DHT22;9428;50.950;6.912;2023-11-21T05:26:57;9.70;99.90
18597;DHT22;9428;50.950;6.912;2023-11-21T05:29:45;9.80;99.90
18597;DHT22;9428;50.950;6.912;2023-11-21T05:32:33;9.70;99.90
18597;DHT22;9428;50.950;6.912;2023-11-21T05:35:20;9.70;99.90
18597;DHT22;9428;50.950;6.912;2023-11-21T05:38:08;9.80;99.90
18597;DHT22;9428;50.950;6.912;2023-11-21T05:40:55;9.80;99.90
18597;DHT22;9428;50.950;6.912;2023-11-21T05:43:44;9.70;99.90
18597;DHT22;9428;50.950;6.912;2023-11-21T05:46:33;9.80;99.90
18597;DHT22;9428;50.950;6.912;2023-11-21T05:49:20;9.80;99.90
18597;DHT22;9428;50.950;6.912;2023-11-21T05:52:08;9.70;99.90
18597;DHT22;9428;50.950;6.912;2023-11-21T05:54:56;10.30;99.90
18597;DHT22;9428;50.950;6.912;2023-11-21T05:57:44;9.70;99.90
18597;DHT22;9428;50.950;6.912;2023-11-21T06:00:31;9.80;99.90
18597;DHT22;9428;50.950;6.912;2023-11-21T06:03:20;9.80;99.90
18597;DHT22;9428;50.950;6.912;2023-11-21T06:06:09;9.70;99.90
18597;DHT22;9428;50.950;6.912;2023-11-21T06:08:56;9.80;99.90
18597;DHT22;9428;50.950;6.912;2023-11-21T06:11:44;9.70;99.90
18597;DHT22;9428;50.950;6.912;2023-11-21T06:14:32;9.70;99.90
18597;DHT22;9428;50.950;6.912;2023-11-21T06:17:21;9.70;99.90
18597;DHT22;9428;50.950;6.912;2023-11-21T06:20:12;9.70;99.90
18597;DHT22;9428;50.950;6.912;2023-11-21T06:23:00;9.60;99.90
18597;DHT22;9428;50.950;6.912;2023-11-21T06:25:49;9.60;99.90
18597;DHT22;9428;50.950;6.912;2023-11-21T06:28:36;9.70;99.90
18597;DHT22;9428;50.950;6.912;2023-11-21T06:31:24;9.60;99.90
18597;DHT22;9428;50.950;6.912;2023-11-21T06:34:11;9.60;99.90
18597;DHT22;9428;50.950;6.912;2023-11-21T06:36:59;9.60;99.90
18597;DHT22;9428;50.950;6.912;2023-11-21T06:39:47;9.60;99.90
18597;DHT22;9428;50.950;6.912;2023-11-21T06:42:34;9.60;99.90
18597;DHT22;9428;50.950;6.912;2023-11-21T06:45:24;9.60;99.90
18597;DHT22;9428;50.950;6.912;2023-11-21T06:48:11;9.50;99.90
18597;DHT22;9428;50.950;6.912;2023-11-21T06:50:58;9.50;99.90
18597;DHT22;9428;50.950;6.912;2023-11-21T06:53:47;9.50;99.90
18597;DHT22;9428;50.950;6.912;2023-11-21T06:56:34;9.60;99.90
18597;DHT22;9428;50.950;6.912;2023-11-21T06:59:22;9.60;99.90
18597;DHT22;9428;50.950;6.912;2023-11-21T07:02:09;9.70;99.90
18597;DHT22;9428;50.950;6.912;2023-11-21T07:04:57;9.70;99.90
18597;DHT22;9428;50.950;6.912;2023-11-21T07:07:44;9.70;99.90
18597;DHT22;9428;50.950;6.912;2023-11-21T07:10:33;9.80;99.90
18597;DHT22;9428;50.950;6.912;2023-11-21T07:13:20;9.80;99.90
18597;DHT22;9428;50.950;6.912;2023-11-21T07:16:08;9.70;99.90
18597;DHT22;9428;50.950;6.912;2023-11-21T07:18:56;9.50;99.90
18597;DHT22;9428;50.950;6.912;2023-11-21T07:21:43;9.60;99.90
18597;DHT22;9428;50.950;6.912;2023-11-21T07:24:30;9.70;99.90
18597;DHT22;9428;50.950;6.912;2023-11-21T07:27:19;9.70;99.90
18597;DHT22;9428;50.950;6.912;2023-11-21T07:30:09;9.70;99.90
18597;DHT22;9428;50.950;6.912;2023-11-21T07:32:56;9.70;99.90
18597;DHT22;9428;50.950;6.912;2023-11-21T07:35:44;9.60;99.90
18597;DHT22;9428;50.950;6.912;2023-11-21T07:38:33;9.70;99.90
18597;DHT22;9428;50.950;6.912;2023-11-21T07:41:24;9.80;99.90
18597;DHT22;9428;50.950;6.912;2023-11-21T07:44:13;9.90;99.90
18597;DHT22;9428;50.950;6.912;2023-11-21T07:47:00;9.90;99.90
18597;DHT22;9428;50.950;6.912;2023-11-21T07:49:50;9.90;99.90
18597;DHT22;9428;50.950;6.912;2023-11-21T07:52:37;9.90;99.90
18597;DHT22;9428;50.950;6.912;2023-11-21T07:55:27;10.00;99.90
18597;DHT22;9428;50.950;6.912;2023-11-21T07:58:18;9.90;99.90
18597;DHT22;9428;50.950;6.912;2023-11-21T08:01:07;10.00;99.90
18597;DHT22;9428;50.950;6.912;2023-11-21T08:03:56;10.00;99.90
18597;DHT22;9428;50.950;6.912;2023-11-21T08:06:47;10.10;99.90
18597;DHT22;9428;50.950;6.912;2023-11-21T08:09:35;10.10;99.90
18597;DHT22;9428;50.950;6.912;2023-11-21T08:12:22;10.00;99.90
18597;DHT22;9428;50.950;6.912;2023-11-21T08:15:10;10.10;99.90
18597;DHT22;9428;50.950;6.912;2023-11-21T08:18:00;10.10;99.90
18597;DHT22;9428;50.950;6.912;2023-11-21T08:20:47;10.10;99.90
18597;DHT22;9428;50.950;6.912;2023-11-21T08:23:37;10.00;99.90
18597;DHT22;9428;50.950;6.912;2023-11-21T08:26:24;10.10;99.90
18597;DHT22;9428;50.950;6.912;2023-11-21T08:29:12;10.10;99.90
18597;DHT22;9428;50.950;6.912;2023-11-21T08:31:59;10.10;99.90
18597;DHT22;9428;50.950;6.912;2023-11-21T08:34:48;10.10;99.90
18597;DHT22;9428;50.950;6.912;2023-11-21T08:37:36;10.00;99.90
18597;DHT22;9428;50.950;6.912;2023-11-21T08:40:30;10.00;99.90
18597;DHT22;9428;50.950;6.912;2023-11-21T08:43:18;10.00;99.90
18597;DHT22;9428;50.950;6.912;2023-11-21T08:46:06;10.00;99.90
18597;DHT22;9428;50.950;6.912;2023-11-21T08:48:54;10.10;99.90
18597;DHT22;9428;50.950;6.912;2023-11-21T08:51:44;10.00;99.90
18597;DHT22;9428;50.950;6.912;2023-11-21T08:54:31;10.10;99.90
18597;DHT22;9428;50.950;6.912;2023-11-21T08:57:20;10.10;99.90
18597;DHT22;9428;50.950;6.912;2023-11-21T09:00:08;10.10;99.90
18597;DHT22;9428;50.950;6.912;2023-11-21T09:02:57;10.00;99.90
18597;DHT22;9428;50.950;6.912;2023-11-21T09:05:44;9.90;99.90
18597;DHT22;9428;50.950;6.912;2023-11-21T09:08:36;10.20;99.90
18597;DHT22;9428;50.950;6.912;2023-11-21T09:11:24;10.20;99.90
18597;DHT22;9428;50.950;6.912;2023-11-21T09:14:11;10.20;99.90
18597;DHT22;9428;50.950;6.912;2023-11-21T09:17:02;10.20;99.90
18597;DHT22;9428;50.950;6.912;2023-11-21T09:19:49;10.20;99.90
18597;DHT22;9428;50.950;6.912;2023-11-21T09:22:37;10.30;99.90
18597;DHT22;9428;50.950;6.912;2023-11-21T09:25:26;10.40;99.90
18597;DHT22;9428;50.950;6.912;2023-11-21T09:28:15;10.40;99.90
18597;DHT22;9428;50.950;6.912;2023-11-21T09:31:04;10.30;99.90
18597;DHT22;9428;50.950;6.912;2023-11-21T09:33:54;10.40;99.90
18597;DHT22;9428;50.950;6.912;2023-11-21T09:36:41;10.40;99.90
18597;DHT22;9428;50.950;6.912;2023-11-21T09:39:31;10.30;99.90
18597;DHT22;9428;50.950;6.912;2023-11-21T09:42:25;10.30;99.90
18597;DHT22;9428;50.950;6.912;2023-11-21T09:45:18;10.40;99.90
18597;DHT22;9428;50.950;6.912;2023-11-21T09:48:10;10.20;99.90
18597;DHT22;9428;50.950;6.912;2023-11-21T09:50:59;10.20;99.90
18597;DHT22;9428;50.950;6.912;2023-11-21T09:53:49;10.30;99.90
18597;DHT22;9428;50.950;6.912;2023-11-21T09:56:38;10.20;99.90
18597;DHT22;9428;50.950;6.912;2023-11-21T09:59:30;10.00;99.90
18597;DHT22;9428;50.950;6.912;2023-11-21T10:02:19;9.90;99.90
18597;DHT22;9428;50.950;6.912;2023-11-21T10:05:10;10.20;99.90
18597;DHT22;9428;50.950;6.912;2023-11-21T10:08:02;10.30;99.90
18597;DHT22;9428;50.950;6.912;2023-11-21T10:10:55;10.40;99.90
18597;DHT22;9428;50.950;6.912;2023-11-21T10:13:43;10.50;99.90
18597;DHT22;9428;50.950;6.912;2023-11-21T10:16:33;10.60;99.90
18597;DHT22;9428;50.950;6.912;2023-11-21T10:19:21;10.40;99.90
18597;DHT22;9428;50.950;6.912;2023-11-21T10:22:09;10.30;99.90
18597;DHT22;9428;50.950;6.912;2023-11-21T10:24:57;10.30;99.90
18597;DHT22;9428;50.950;6.912;2023-11-21T10:27:48;10.30;99.90
18597;DHT22;9428;50.950;6.912;2023-11-21T10:30:38;10.30;99.90
18597;DHT22;9428;50.950;6.912;2023-11-21T10:33:30;10.40;99.90
18597;DHT22;9428;50.950;6.912;2023-11-21T10:36:25;10.40;99.90
18597;DHT22;9428;50.950;6.912;2023-11-21T10:39:14;10.50;99.90
18597;DHT22;9428;50.950;6.912;2023-11-21T10:42:07;10.40;99.90
18597;DHT22;9428;50.950;6.912;2023-11-21T10:44:55;10.50;99.90
18597;DHT22;9428;50.950;6.912;2023-11-21T10:47:44;10.40;99.90
18597;DHT22;9428;50.950;6.912;2023-11-21T10:50:37;11.00;99.90
18597;DHT22;9428;50.950;6.912;2023-11-21T10:53:28;10.60;99.90
18597;DHT22;9428;50.950;6.912;2023-11-21T10:56:18;10.60;99.90
18597;DHT22;9428;50.950;6.912;2023-11-21T10:59:08;10.60;99.90
18597;DHT22;9428;50.950;6.912;2023-11-21T11:01:57;10.90;99.90
18597;DHT22;9428;50.950;6.912;2023-11-21T11:04:47;10.50;99.90
18597;DHT22;9428;50.950;6.912;2023-11-21T11:07:37;10.50;99.90
18597;DHT22;9428;50.950;6.912;2023-11-21T11:10:25;10.50;99.90
18597;DHT22;9428;50.950;6.912;2023-11-21T11:13:13;10.40;99.90
18597;DHT22;9428;50.950;6.912;2023-11-21T11:16:01;10.50;99.90
18597;DHT22;9428;50.950;6.912;2023-11-21T11:18:52;10.50;99.90
18597;DHT22;9428;50.950;6.912;2023-11-21T11:21:47;10.60;99.90
18597;DHT22;9428;50.950;6.912;2023-11-21T11:25:03;10.50;99.90
18597;DHT22;9428;50.950;6.912;2023-11-21T11:28:04;10.40;99.90
18597;DHT22;9428;50.950;6.912;2023-11-21T11:31:03;10.50;99.90
18597;DHT22;9428;50.950;6.912;2023-11-21T11:33:56;10.40;99.90
18597;DHT22;9428;50.950;6.912;2023-11-21T11:36:49;10.40;99.90
18597;DHT22;9428;50.950;6.912;2023-11-21T11:39:41;10.50;99.90
18597;DHT22;9428;50.950;6.912;2023-11-21T11:42:32;10.50;99.90
18597;DHT22;9428;50.950;6.912;2023-11-21T11:45:20;10.70;99.90
18597;DHT22;9428;50.950;6.912;2023-11-21T11:48:07;10.60;99.90
18597;DHT22;9428;50.950;6.912;2023-11-21T11:51:05;10.70;99.90
18597;DHT22;9428;50.950;6.912;2023-11-21T11:53:55;10.50;99.90
18597;DHT22;9428;50.950;6.912;2023-11-21T11:56:42;10.50;99.90
18597;DHT22;9428;50.950;6.912;2023-11-21T12:03:11;10.70;99.90
18597;DHT22;9428;50.950;6.912;2023-11-21T12:06:00;10.20;99.90
18597;DHT22;9428;50.950;6.912;2023-11-21T12:08:48;10.50;99.90
18597;DHT22;9428;50.950;6.912;2023-11-21T12:11:37;10.70;99.90
18597;DHT22;9428;50.950;6.912;2023-11-21T12:14:24;10.70;99.90
18597;DHT22;9428;50.950;6.912;2023-11-21T12:17:13;10.70;99.90
18597;DHT22;9428;50.950;6.912;2023-11-21T12:20:02;10.90;99.90
18597;DHT22;9428;50.950;6.912;2023-11-21T12:22:52;10.60;99.90
18597;DHT22;9428;50.950;6.912;2023-11-21T12:25:39;10.70;99.90
18597;DHT22;9428;50.950;6.912;2023-11-21T12:28:27;10.80;99.90
18597;DHT22;9428;50.950;6.912;2023-11-21T12:31:15;9.80;99.90
18597;DHT22;9428;50.950;6.912;2023-11-21T12:34:06;10.70;99.90
18597;DHT22;9428;50.950;6.912;2023-11-21T12:36:55;10.80;99.90
18597;DHT22;9428;50.950;6.912;2023-11-21T12:39:42;10.70;99.90
18597;DHT22;9428;50.950;6.912;2023-11-21T12:42:30;10.70;99.90
18597;DHT22;9428;50.950;6.912;2023-11-21T12:45:22;10.90;99.90
18597;DHT22;9428;50.950;6.912;2023-11-21T12:48:11;10.70;99.90
18597;DHT22;9428;50.950;6.912;2023-11-21T12:51:00;10.50;99.90
18597;DHT22;9428;50.950;6.912;2023-11-21T12:53:49;10.40;99.90
18597;DHT22;9428;50.950;6.912;2023-11-21T12:56:38;10.30;99.90
18597;DHT22;9428;50.950;6.912;2023-11-21T12:59:26;10.50;99.90
18597;DHT22;9428;50.950;6.912;2023-11-21T13:02:13;10.50;99.90
18597;DHT22;9428;50.950;6.912;2023-11-21T13:05:01;10.50;99.90
18597;DHT22;9428;50.950;6.912;2023-11-21T13:07:54;10.60;99.90
18597;DHT22;9428;50.950;6.912;2023-11-21T13:10:45;10.60;99.90
18597;DHT22;9428;50.950;6.912;2023-11-21T13:13:32;10.50;99.90
18597;DHT22;9428;50.950;6.912;2023-11-21T13:16:20;10.70;99.90
18597;DHT22;9428;50.950;6.912;2023-11-21T13:19:08;10.60;99.90
18597;DHT22;9428;50.950;6.912;2023-11-21T13:21:55;10.70;99.90
18597;DHT22;9428;50.950;6.912;2023-11-21T13:24:44;10.30;99.90
18597;DHT22;9428;50.950;6.912;2023-11-21T13:27:31;10.70;99.90
18597;DHT22;9428;50.950;6.912;2023-11-21T13:30:20;10.90;99.90
18597;DHT22;9428;50.950;6.912;2023-11-21T13:33:12;10.80;99.90
18597;DHT22;9428;50.950;6.912;2023-11-21T13:36:05;10.80;99.90
18597;DHT22;9428;50.950;6.912;2023-11-21T13:38:53;10.80;99.90
18597;DHT22;9428;50.950;6.912;2023-11-21T13:41:42;10.80;99.90
18597;DHT22;9428;50.950;6.912;2023-11-21T13:44:34;10.80;99.90
18597;DHT22;9428;50.950;6.912;2023-11-21T13:47:24;10.80;99.90
18597;DHT22;9428;50.950;6.912;2023-11-21T13:50:15;10.80;99.90
18597;DHT22;9428;50.950;6.912;2023-11-21T13:53:08;10.80;99.90
18597;DHT22;9428;50.950;6.912;2023-11-21T13:56:04;10.80;99.90
18597;DHT22;9428;50.950;6.912;2023-11-21T13:58:53;11.30;99.90
18597;DHT22;9428;50.950;6.912;2023-11-21T14:01:41;10.80;99.90
18597;DHT22;9428;50.950;6.912;2023-11-21T14:04:40;11.10;99.90
18597;DHT22;9428;50.950;6.912;2023-11-21T14:07:40;10.90;99.90
18597;DHT22;9428;50.950;6.912;2023-11-21T14:10:33;10.80;99.90
18597;DHT22;9428;50.950;6.912;2023-11-21T14:13:28;10.80;99.90
18597;DHT22;9428;50.950;6.912;2023-11-21T14:16:17;11.10;99.90
18597;DHT22;9428;50.950;6.912;2023-11-21T14:19:04;10.90;99.90
18597;DHT22;9428;50.950;6.912;2023-11-21T14:22:01;11.00;99.90
18597;DHT22;9428;50.950;6.912;2023-11-21T14:24:49;11.00;99.90
18597;DHT22;9428;50.950;6.912;2023-11-21T14:27:37;11.00;99.90
18597;DHT22;9428;50.950;6.912;2023-11-21T14:30:25;11.00;99.90
18597;DHT22;9428;50.950;6.912;2023-11-21T14:33:14;11.60;99.90
18597;DHT22;9428;50.950;6.912;2023-11-21T14:36:02;11.00;99.90
18597;DHT22;9428;50.950;6.912;2023-11-21T14:38:49;10.90;99.90
18597;DHT22;9428;50.950;6.912;2023-11-21T14:41:40;10.20;99.90
18597;DHT22;9428;50.950;6.912;2023-11-21T14:44:28;10.80;99.90
18597;DHT22;9428;50.950;6.912;2023-11-21T14:47:21;10.90;99.90
18597;DHT22;9428;50.950;6.912;2023-11-21T14:50:14;10.90;99.90
18597;DHT22;9428;50.950;6.912;2023-11-21T14:53:15;11.00;99.90
18597;DHT22;9428;50.950;6.912;2023-11-21T14:56:12;10.90;99.90
18597;DHT22;9428;50.950;6.912;2023-11-21T14:59:07;10.90;99.90
18597;DHT22;9428;50.950;6.912;2023-11-21T15:02:02;10.90;99.90
18597;DHT22;9428;50.950;6.912;2023-11-21T15:05:00;10.90;99.90
18597;DHT22;9428;50.950;6.912;2023-11-21T15:07:49;10.90;99.90
18597;DHT22;9428;50.950;6.912;2023-11-21T15:10:37;10.90;99.90
18597;DHT22;9428;50.950;6.912;2023-11-21T15:13:32;11.00;99.90
18597;DHT22;9428;50.950;6.912;2023-11-21T15:16:19;10.80;99.90
18597;DHT22;9428;50.950;6.912;2023-11-21T15:19:07;10.80;99.90
18597;DHT22;9428;50.950;6.912;2023-11-21T15:21:55;10.70;99.90
18597;DHT22;9428;50.950;6.912;2023-11-21T15:24:44;10.60;99.90
18597;DHT22;9428;50.950;6.912;2023-11-21T15:27:33;10.60;99.90
18597;DHT22;9428;50.950;6.912;2023-11-21T15:30:20;10.60;99.90
18597;DHT22;9428;50.950;6.912;2023-11-21T15:33:10;10.70;99.90
18597;DHT22;9428;50.950;6.912;2023-11-21T15:35:58;10.70;99.90
18597;DHT22;9428;50.950;6.912;2023-11-21T15:38:46;10.70;99.90
18597;DHT22;9428;50.950;6.912;2023-11-21T15:41:34;10.60;99.90
18597;DHT22;9428;50.950;6.912;2023-11-21T15:44:23;10.50;99.90
18597;DHT22;9428;50.950;6.912;2023-11-21T15:47:12;10.70;99.90
18597;DHT22;9428;50.950;6.912;2023-11-21T15:49:59;10.60;99.90
18597;DHT22;9428;50.950;6.912;2023-11-21T15:52:50;10.60;99.90
18597;DHT22;9428;50.950;6.912;2023-11-21T15:55:37;10.40;99.90
18597;DHT22;9428;50.950;6.912;2023-11-21T15:58:31;10.50;99.90
18597;DHT22;9428;50.950;6.912;2023-11-21T16:01:18;10.50;99.90
18597;DHT22;9428;50.950;6.912;2023-11-21T16:04:07;10.40;99.90
18597;DHT22;9428;50.950;6.912;2023-11-21T16:06:57;9.90;99.90
18597;DHT22;9428;50.950;6.912;2023-11-21T16:09:45;10.50;99.90
18597;DHT22;9428;50.950;6.912;2023-11-21T16:12:33;10.50;99.90
18597;DHT22;9428;50.950;6.912;2023-11-21T16:15:21;10.50;99.90
18597;DHT22;9428;50.950;6.912;2023-11-21T16:18:09;10.50;99.90
18597;DHT22;9428;50.950;6.912;2023-11-21T16:20:58;10.50;99.90
18597;DHT22;9428;50.950;6.912;2023-11-21T16:23:46;10.40;99.90
18597;DHT22;9428;50.950;6.912;2023-11-21T16:26:35;10.50;99.90
18597;DHT22;9428;50.950;6.912;2023-11-21T16:29:23;10.40;99.90
18597;DHT22;9428;50.950;6.912;2023-11-21T16:32:12;10.50;99.90
18597;DHT22;9428;50.950;6.912;2023-11-21T16:35:00;10.40;99.90
18597;DHT22;9428;50.950;6.912;2023-11-21T16:37:48;10.40;99.90
18597;DHT22;9428;50.950;6.912;2023-11-21T16:40:36;10.40;99.90
18597;DHT22;9428;50.950;6.912;2023-11-21T16:43:23;10.50;99.90
18597;DHT22;9428;50.950;6.912;2023-11-21T16:46:11;10.30;99.90
18597;DHT22;9428;50.950;6.912;2023-11-21T16:49:01;10.30;99.90
18597;DHT22;9428;50.950;6.912;2023-11-21T16:51:49;10.30;99.90
18597;DHT22;9428;50.950;6.912;2023-11-21T16:54:39;10.30;99.90
18597;DHT22;9428;50.950;6.912;2023-11-21T16:57:27;10.30;99.90
18597;DHT22;9428;50.950;6.912;2023-11-21T17:00:14;10.30;99.90
18597;DHT22;9428;50.950;6.912;2023-11-21T17:03:04;10.30;99.90
18597;DHT22;9428;50.950;6.912;2023-11-21T17:05:53;10.40;99.90
18597;DHT22;9428;50.950;6.912;2023-11-21T17:08:41;10.30;99.90
18597;DHT22;9428;50.950;6.912;2023-11-21T17:11:30;10.30;99.90
18597;DHT22;9428;50.950;6.912;2023-11-21T17:14:17;10.30;99.90
18597;DHT22;9428;50.950;6.912;2023-11-21T17:17:05;10.30;99.90
18597;DHT22;9428;50.950;6.912;2023-11-21T17:19:54;10.40;99.90
18597;DHT22;9428;50.950;6.912;2023-11-21T17:22:43;10.20;99.90
18597;DHT22;9428;50.950;6.912;2023-11-21T17:25:30;10.20;99.90
18597;DHT22;9428;50.950;6.912;2023-11-21T17:28:18;10.30;99.90
18597;DHT22;9428;50.950;6.912;2023-11-21T17:31:05;10.20;99.90
18597;DHT22;9428;50.950;6.912;2023-11-21T17:33:54;10.20;99.90
18597;DHT22;9428;50.950;6.912;2023-11-21T17:36:41;10.10;99.90
18597;DHT22;9428;50.950;6.912;2023-11-21T17:39:30;10.20;99.90
18597;DHT22;9428;50.950;6.912;2023-11-21T17:42:19;10.20;99.90
18597;DHT22;9428;50.950;6.912;2023-11-21T17:45:07;10.10;99.90
18597;DHT22;9428;50.950;6.912;2023-11-21T17:47:55;9.90;99.90
18597;DHT22;9428;50.950;6.912;2023-11-21T17:50:42;9.90;99.90
18597;DHT22;9428;50.950;6.912;2023-11-21T17:53:30;9.90;99.90
18597;DHT22;9428;50.950;6.912;2023-11-21T17:56:19;9.90;99.90
18597;DHT22;9428;50.950;6.912;2023-11-21T17:59:08;10.00;99.90
18597;DHT22;9428;50.950;6.912;2023-11-21T18:01:55;9.80;99.90
18597;DHT22;9428;50.950;6.912;2023-11-21T18:04:43;9.70;99.90
18597;DHT22;9428;50.950;6.912;2023-11-21T18:07:31;9.80;99.90
18597;DHT22;9428;50.950;6.912;2023-11-21T18:10:18;9.60;99.90
18597;DHT22;9428;50.950;6.912;2023-11-21T18:13:07;9.60;99.90
18597;DHT22;9428;50.950;6.912;2023-11-21T18:15:54;9.40;99.90